Time;durP1;ratioP1;P1;durP2;ratioP2;P2;SDS_P1;SDS_P2;PMS_P1;PMS_P2;Temp;Humidity;BMP_temperature;BMP_pressure;BME280_temperature;BME280_humidity;BME280_pressure;Samples;Min_cycle;Max_cycle;Signal;HPM_P1;HPM_P2
2021/05/30 00:00:16;;;;;;;15.00;9.70;;;9.30;99.90;;;;;;5063687;28;20667;-85
2021/05/30 00:02:45;;;;;;;10.93;9.20;;;9.30;99.90;;;;;;5042348;28;20709;-86
2021/05/30 00:05:14;;;;;;;12.50;8.47;;;9.20;99.90;;;;;;5044259;28;20237;-86
2021/05/30 00:07:43;;;;;;;10.83;9.03;;;9.20;99.90;;;;;;5064655;28;20696;-85
2021/05/30 00:10:12;;;;;;;11.33;8.43;;;9.20;99.90;;;;;;5063236;28;20240;-86
2021/05/30 00:12:46;;;;;;;11.83;9.27;;;9.20;99.90;;;;;;5067287;28;20255;-86
2021/05/30 00:15:14;;;;;;;10.93;9.20;;;9.10;99.90;;;;;;5061278;28;20279;-85
2021/05/30 00:17:42;;;;;;;11.67;9.00;;;9.10;99.90;;;;;;5046872;28;20242;-86
2021/05/30 00:20:12;;;;;;;11.07;8.67;;;9.10;99.90;;;;;;5048821;28;20230;-86
2021/05/30 00:22:40;;;;;;;14.00;9.37;;;9.10;99.90;;;;;;5047227;28;20237;-84
2021/05/30 00:25:09;;;;;;;15.20;9.53;;;9.10;99.90;;;;;;5048630;28;20310;-85
2021/05/30 00:27:37;;;;;;;10.90;8.87;;;9.10;99.90;;;;;;5052051;28;20239;-84
2021/05/30 00:30:08;;;;;;;11.93;9.70;;;9.20;99.90;;;;;;5048987;28;20237;-86
2021/05/30 00:32:36;;;;;;;12.40;8.90;;;9.10;99.90;;;;;;5051039;28;20247;-86
2021/05/30 00:35:04;;;;;;;13.17;9.67;;;9.10;99.90;;;;;;5049210;28;20228;-85
2021/05/30 00:37:32;;;;;;;10.93;9.07;;;9.10;99.90;;;;;;5048452;28;20237;-84
2021/05/30 00:40:01;;;;;;;12.63;9.33;;;9.10;99.90;;;;;;5049287;28;20237;-85
2021/05/30 00:42:29;;;;;;;12.73;9.20;;;9.00;99.90;;;;;;5048469;28;20238;-83
2021/05/30 00:44:56;;;;;;;9.80;8.50;;;8.90;99.90;;;;;;5048787;28;20282;-84
2021/05/30 00:47:25;;;;;;;13.27;9.13;;;8.90;99.90;;;;;;5048045;28;20236;-85
2021/05/30 00:49:55;;;;;;;12.57;8.87;;;8.80;99.90;;;;;;5047879;28;20248;-82
2021/05/30 00:52:22;;;;;;;11.47;9.23;;;8.80;99.90;;;;;;5056086;28;20322;-85
2021/05/30 00:54:50;;;;;;;13.60;9.53;;;8.80;99.90;;;;;;5047821;28;20294;-85
2021/05/30 00:57:18;;;;;;;10.60;9.50;;;8.80;99.90;;;;;;5062322;28;20290;-85
2021/05/30 00:59:46;;;;;;;14.00;10.03;;;8.80;99.90;;;;;;5063788;28;20231;-84
2021/05/30 01:02:15;;;;;;;13.70;9.97;;;8.80;99.90;;;;;;5047498;28;20239;-85
2021/05/30 01:04:46;;;;;;;13.77;9.53;;;8.80;99.90;;;;;;5047894;28;20311;-84
2021/05/30 01:07:16;;;;;;;14.30;9.93;;;8.70;99.90;;;;;;5062039;28;20326;-85
2021/05/30 01:09:46;;;;;;;15.30;10.33;;;8.70;99.90;;;;;;5065515;28;20321;-85
2021/05/30 01:12:15;;;;;;;13.70;10.10;;;8.70;99.90;;;;;;5046437;28;20232;-84
2021/05/30 01:14:43;;;;;;;13.50;10.03;;;8.70;99.90;;;;;;5043581;28;20367;-85
2021/05/30 01:17:11;;;;;;;14.00;10.70;;;8.60;99.90;;;;;;5056403;28;20719;-85
2021/05/30 01:19:39;;;;;;;11.17;9.97;;;8.60;99.90;;;;;;5051016;28;20319;-85
2021/05/30 01:22:08;;;;;;;12.50;9.50;;;8.70;99.90;;;;;;5064237;28;20575;-85
2021/05/30 01:24:38;;;;;;;12.87;9.70;;;8.60;99.90;;;;;;5075827;28;20816;-84
2021/05/30 01:27:06;;;;;;;12.20;9.47;;;8.70;99.90;;;;;;5074051;28;20240;-83
2021/05/30 01:29:34;;;;;;;12.70;9.77;;;8.60;99.90;;;;;;5051046;28;20243;-85
2021/05/30 01:32:02;;;;;;;15.37;9.60;;;8.60;99.90;;;;;;5067069;28;20617;-82
2021/05/30 01:34:32;;;;;;;11.80;9.50;;;8.60;99.90;;;;;;5062779;28;20744;-84
2021/05/30 01:36:59;;;;;;;12.13;10.10;;;8.60;99.90;;;;;;5048911;28;20297;-85
2021/05/30 01:39:28;;;;;;;10.20;9.20;;;8.50;99.90;;;;;;5051902;28;20778;-86
2021/05/30 01:41:57;;;;;;;12.03;9.47;;;8.40;99.90;;;;;;5058628;28;20584;-83
2021/05/30 01:44:25;;;;;;;11.13;9.70;;;8.40;99.90;;;;;;5051916;28;20596;-85
2021/05/30 01:46:53;;;;;;;12.37;9.57;;;8.40;99.90;;;;;;5049697;28;20255;-84
2021/05/30 01:49:22;;;;;;;14.97;10.40;;;8.40;99.90;;;;;;5051735;28;20314;-84
2021/05/30 01:51:49;;;;;;;12.90;9.53;;;8.40;99.90;;;;;;5057224;28;20224;-85
2021/05/30 01:54:20;;;;;;;12.37;10.00;;;8.50;99.90;;;;;;5051908;28;20231;-85
2021/05/30 01:56:57;;;;;;;11.67;9.47;;;8.40;99.90;;;;;;5061892;28;20232;-85
2021/05/30 01:59:27;;;;;;;12.83;9.43;;;8.40;99.90;;;;;;5051507;28;20232;-85
2021/05/30 02:01:56;;;;;;;12.27;9.90;;;8.40;99.90;;;;;;5051286;28;20324;-84
2021/05/30 02:04:32;;;;;;;11.27;10.17;;;8.40;99.90;;;;;;5050841;28;20286;-84
2021/05/30 02:07:00;;;;;;;11.70;9.80;;;8.30;99.90;;;;;;5051818;28;20287;-85
2021/05/30 02:09:30;;;;;;;12.33;9.47;;;8.20;99.90;;;;;;5066841;28;20228;-84
2021/05/30 02:11:59;;;;;;;14.87;10.90;;;8.30;99.90;;;;;;5051398;28;20232;-85
2021/05/30 02:14:27;;;;;;;13.27;9.60;;;8.20;99.90;;;;;;5066419;28;20229;-84
2021/05/30 02:16:55;;;;;;;16.10;10.17;;;8.20;99.90;;;;;;5050379;28;20270;-85
2021/05/30 02:19:24;;;;;;;13.43;11.17;;;8.20;99.90;;;;;;5053110;28;20319;-85
2021/05/30 02:21:53;;;;;;;11.43;9.80;;;8.10;99.90;;;;;;5050773;28;20240;-85
2021/05/30 02:24:23;;;;;;;12.87;10.67;;;8.20;99.90;;;;;;5056046;28;20603;-85
2021/05/30 02:26:51;;;;;;;13.37;10.30;;;8.10;99.90;;;;;;5051175;28;20684;-85
2021/05/30 02:29:34;;;;;;;13.07;11.03;;;8.20;99.90;;;;;;5049848;28;20305;-85
2021/05/30 02:32:03;;;;;;;14.83;10.97;;;8.20;99.90;;;;;;5061249;28;20232;-84
2021/05/30 02:34:31;;;;;;;12.40;10.90;;;8.10;99.90;;;;;;5050807;28;20238;-84
2021/05/30 02:36:59;;;;;;;15.43;11.40;;;8.00;99.90;;;;;;5050203;28;20290;-85
2021/05/30 02:39:27;;;;;;;13.67;11.40;;;8.10;99.90;;;;;;5050966;28;20231;-84
2021/05/30 02:41:54;;;;;;;12.80;10.37;;;8.10;99.90;;;;;;5050473;28;20231;-85
2021/05/30 02:44:22;;;;;;;15.73;12.50;;;8.20;99.90;;;;;;5050746;28;20246;-85
2021/05/30 02:46:51;;;;;;;15.03;11.90;;;8.20;99.90;;;;;;5049880;28;20692;-83
2021/05/30 02:49:20;;;;;;;14.57;12.07;;;8.10;99.90;;;;;;5050975;28;20235;-85
2021/05/30 02:51:48;;;;;;;16.20;11.63;;;8.20;99.90;;;;;;5049640;28;20244;-84
2021/05/30 02:54:16;;;;;;;15.23;11.87;;;8.10;99.90;;;;;;5066537;28;20242;-82
2021/05/30 02:56:44;;;;;;;14.07;11.20;;;8.10;99.90;;;;;;5055861;28;20283;-83
2021/05/30 02:59:12;;;;;;;13.87;11.20;;;8.10;99.90;;;;;;5050338;28;20644;-85
2021/05/30 03:01:40;;;;;;;14.53;11.40;;;8.10;99.90;;;;;;5059170;28;20235;-85
2021/05/30 03:04:08;;;;;;;17.53;12.80;;;8.10;99.90;;;;;;5057697;28;20266;-85
2021/05/30 03:06:36;;;;;;;19.03;12.87;;;8.00;99.90;;;;;;5054104;28;20244;-81
2021/05/30 03:09:05;;;;;;;15.40;12.63;;;8.10;99.90;;;;;;5050461;28;20244;-84
2021/05/30 03:11:32;;;;;;;15.73;12.33;;;8.00;99.90;;;;;;5049569;28;20573;-84
2021/05/30 03:14:00;;;;;;;14.00;11.27;;;7.90;99.90;;;;;;5032753;28;20236;-84
2021/05/30 03:16:28;;;;;;;13.73;12.27;;;7.90;99.90;;;;;;5051863;28;20259;-84
2021/05/30 03:18:56;;;;;;;15.10;11.17;;;8.00;99.90;;;;;;5050032;28;20696;-85
2021/05/30 03:21:24;;;;;;;12.50;11.17;;;8.00;99.90;;;;;;5058199;28;20255;-83
2021/05/30 03:23:52;;;;;;;16.73;12.20;;;8.00;99.90;;;;;;5049926;28;20469;-84
2021/05/30 03:26:20;;;;;;;16.77;12.13;;;8.10;99.90;;;;;;5056154;28;20244;-84
2021/05/30 03:28:47;;;;;;;14.33;11.37;;;8.00;99.90;;;;;;5069907;28;20257;-85
2021/05/30 03:31:15;;;;;;;13.37;11.30;;;8.00;99.90;;;;;;5066554;28;20281;-85
2021/05/30 03:33:43;;;;;;;12.40;10.17;;;8.00;99.90;;;;;;5069477;28;20345;-83
2021/05/30 03:36:15;;;;;;;13.33;11.17;;;8.20;99.90;;;;;;5070610;28;20726;-84
2021/05/30 03:38:43;;;;;;;14.20;10.80;;;8.00;99.90;;;;;;5049854;28;20277;-85
2021/05/30 03:41:13;;;;;;;17.13;11.73;;;8.10;99.90;;;;;;5054567;28;20239;-83
2021/05/30 03:43:41;;;;;;;16.37;12.33;;;8.10;99.90;;;;;;5052782;28;20290;-84
2021/05/30 03:46:09;;;;;;;13.53;11.03;;;8.10;99.90;;;;;;5048864;28;20311;-84
2021/05/30 03:48:37;;;;;;;16.80;11.93;;;8.10;99.90;;;;;;5047235;28;20285;-84
2021/05/30 03:51:05;;;;;;;15.87;11.27;;;8.20;99.90;;;;;;5049583;28;20228;-84
2021/05/30 03:53:32;;;;;;;15.63;12.33;;;8.30;99.90;;;;;;5047399;28;20281;-83
2021/05/30 03:56:01;;;;;;;16.30;10.70;;;8.40;99.90;;;;;;5049606;28;20232;-84
2021/05/30 03:58:29;;;;;;;13.43;11.27;;;8.40;99.90;;;;;;5049519;28;20239;-84
2021/05/30 04:00:56;;;;;;;15.63;11.90;;;8.40;99.90;;;;;;5051521;28;20314;-84
2021/05/30 04:03:24;;;;;;;14.80;11.37;;;8.60;99.90;;;;;;5067112;28;20603;-84
2021/05/30 04:05:52;;;;;;;16.87;12.27;;;8.60;99.90;;;;;;5051899;28;20274;-84
2021/05/30 04:08:19;;;;;;;16.47;11.57;;;8.60;99.90;;;;;;5069544;28;20259;-84
2021/05/30 04:10:47;;;;;;;18.27;12.30;;;8.50;99.90;;;;;;5074283;28;20240;-83
2021/05/30 04:13:16;;;;;;;16.97;12.30;;;8.60;99.90;;;;;;5059624;28;20707;-85
2021/05/30 04:15:44;;;;;;;17.57;13.00;;;8.60;99.90;;;;;;5044345;28;20570;-84
2021/05/30 04:18:11;;;;;;;15.43;12.17;;;8.60;99.90;;;;;;5052168;28;20236;-84
2021/05/30 04:20:39;;;;;;;17.67;13.83;;;8.70;99.90;;;;;;5049056;28;20251;-84
2021/05/30 04:23:07;;;;;;;17.37;13.50;;;8.70;99.90;;;;;;5070315;28;20233;-85
2021/05/30 04:25:35;;;;;;;16.83;12.50;;;8.60;99.90;;;;;;5041704;28;20700;-83
2021/05/30 04:28:02;;;;;;;16.27;11.43;;;8.60;99.90;;;;;;5048764;28;20239;-82
2021/05/30 04:30:31;;;;;;;20.30;13.60;;;8.70;99.90;;;;;;5049089;28;20240;-85
2021/05/30 04:33:02;;;;;;;14.73;12.43;;;8.60;99.90;;;;;;5048714;28;20263;-85
2021/05/30 04:35:30;;;;;;;17.67;13.07;;;8.80;99.90;;;;;;5049348;28;20237;-85
2021/05/30 04:37:58;;;;;;;16.33;13.00;;;8.80;99.90;;;;;;5048669;28;20231;-84
2021/05/30 04:40:25;;;;;;;19.80;14.33;;;8.80;99.90;;;;;;5047560;28;20234;-85
2021/05/30 04:42:53;;;;;;;16.13;13.83;;;8.80;99.90;;;;;;5052187;28;20231;-84
2021/05/30 04:45:21;;;;;;;17.83;13.60;;;8.80;99.90;;;;;;5048831;28;20236;-85
2021/05/30 04:47:50;;;;;;;21.07;14.30;;;8.90;99.90;;;;;;5047888;28;20236;-83
2021/05/30 04:50:18;;;;;;;18.63;13.70;;;8.90;99.90;;;;;;5047226;28;20252;-85
2021/05/30 04:52:46;;;;;;;19.97;14.07;;;9.00;99.90;;;;;;5066115;28;20238;-85
2021/05/30 04:55:14;;;;;;;22.13;15.10;;;9.00;99.90;;;;;;5052087;28;20709;-83
2021/05/30 04:57:44;;;;;;;27.60;15.17;;;9.00;99.90;;;;;;5067335;28;20325;-84
2021/05/30 05:00:14;;;;;;;27.47;16.00;;;9.10;99.90;;;;;;5028970;28;20705;-85
2021/05/30 05:02:42;;;;;;;26.40;15.47;;;9.10;99.90;;;;;;5040292;28;20690;-84
2021/05/30 05:05:12;;;;;;;24.70;15.53;;;9.00;99.90;;;;;;5034469;28;20373;-85
2021/05/30 05:07:41;;;;;;;25.53;15.70;;;9.00;99.90;;;;;;5065311;28;20263;-85
2021/05/30 05:10:11;;;;;;;27.50;16.23;;;9.00;99.90;;;;;;5048148;28;20236;-83
2021/05/30 05:12:39;;;;;;;29.67;15.03;;;9.00;99.90;;;;;;5055589;28;20236;-85
2021/05/30 05:15:08;;;;;;;30.20;16.40;;;9.10;99.90;;;;;;5054498;28;20293;-85
2021/05/30 05:17:36;;;;;;;27.30;15.50;;;9.20;99.90;;;;;;5052336;28;20290;-84
2021/05/30 05:20:09;;;;;;;28.43;15.13;;;9.30;99.90;;;;;;5048300;28;20236;-86
2021/05/30 05:22:37;;;;;;;31.57;16.87;;;9.40;99.90;;;;;;5047704;28;20243;-85
2021/05/30 05:25:09;;;;;;;26.50;15.50;;;9.40;99.90;;;;;;5048780;28;20235;-86
2021/05/30 05:27:36;;;;;;;31.33;16.37;;;9.40;99.90;;;;;;5044957;28;20624;-85
2021/05/30 05:30:07;;;;;;;30.20;16.33;;;9.40;99.90;;;;;;5048423;28;20238;-83
2021/05/30 05:32:35;;;;;;;26.40;16.07;;;9.40;99.90;;;;;;5066154;28;20235;-86
2021/05/30 05:35:05;;;;;;;30.53;16.87;;;9.40;99.90;;;;;;5063457;28;20252;-82
2021/05/30 05:37:34;;;;;;;27.87;16.33;;;9.40;99.90;;;;;;5051917;28;20254;-83
2021/05/30 05:40:03;;;;;;;30.93;16.70;;;9.50;99.90;;;;;;5047974;28;20259;-82
2021/05/30 05:42:31;;;;;;;29.63;15.97;;;9.50;99.90;;;;;;5047884;28;20570;-83
2021/05/30 05:44:59;;;;;;;26.50;16.27;;;9.40;99.90;;;;;;5038107;28;20259;-83
2021/05/30 05:47:27;;;;;;;27.83;16.87;;;9.40;99.90;;;;;;5047688;28;20293;-83
2021/05/30 05:49:55;;;;;;;24.47;16.73;;;9.50;99.90;;;;;;5037077;28;20236;-83
2021/05/30 05:52:24;;;;;;;25.10;16.43;;;9.40;99.90;;;;;;5046289;28;20299;-83
2021/05/30 05:54:52;;;;;;;26.83;16.37;;;9.50;99.90;;;;;;5039572;28;20224;-83
2021/05/30 05:57:23;;;;;;;30.60;17.37;;;9.60;99.90;;;;;;5058920;28;20234;-84
2021/05/30 05:59:51;;;;;;;24.83;16.23;;;9.60;99.90;;;;;;5041833;28;20711;-83
2021/05/30 06:02:19;;;;;;;25.70;17.53;;;9.60;99.90;;;;;;5047379;28;20228;-82
2021/05/30 06:04:46;;;;;;;29.57;18.03;;;9.70;99.90;;;;;;5039977;28;20595;-82
2021/05/30 06:07:14;;;;;;;29.03;17.63;;;9.70;99.90;;;;;;5063460;28;20228;-83
2021/05/30 06:09:42;;;;;;;28.17;17.37;;;9.80;99.90;;;;;;5057645;28;20272;-83
2021/05/30 06:12:10;;;;;;;29.40;18.10;;;9.80;99.90;;;;;;5073705;28;20237;-83
2021/05/30 06:14:40;;;;;;;30.83;19.13;;;9.80;99.90;;;;;;5052373;28;20295;-82
2021/05/30 06:17:09;;;;;;;28.33;19.40;;;9.80;99.90;;;;;;5050420;28;20279;-83
2021/05/30 06:19:37;;;;;;;29.90;19.23;;;9.90;99.90;;;;;;5050541;28;20316;-83
2021/05/30 06:22:06;;;;;;;30.70;20.37;;;10.00;99.90;;;;;;5051549;28;20242;-82
2021/05/30 06:24:34;;;;;;;31.57;20.33;;;10.10;99.90;;;;;;5042853;28;20272;-82
2021/05/30 06:27:04;;;;;;;28.07;19.70;;;10.10;99.90;;;;;;5069118;28;20235;-82
2021/05/30 06:29:33;;;;;;;25.53;19.10;;;10.20;99.90;;;;;;5048115;28;20259;-83
2021/05/30 06:32:03;;;;;;;32.40;21.00;;;10.10;99.90;;;;;;5047395;28;20234;-82
2021/05/30 06:34:31;;;;;;;27.03;20.17;;;10.10;99.90;;;;;;5050043;28;20242;-83
2021/05/30 06:36:58;;;;;;;31.13;20.83;;;10.10;99.90;;;;;;5050269;28;20232;-83
2021/05/30 06:39:29;;;;;;;32.63;20.87;;;10.20;99.90;;;;;;5041709;28;20271;-82
2021/05/30 06:41:58;;;;;;;33.57;21.47;;;10.20;99.90;;;;;;5046711;28;20264;-82
2021/05/30 06:44:28;;;;;;;30.37;19.70;;;10.20;99.90;;;;;;5046085;28;20236;-82
2021/05/30 06:46:56;;;;;;;29.80;19.07;;;10.30;99.90;;;;;;5045387;28;20234;-83
2021/05/30 06:49:25;;;;;;;26.50;19.33;;;10.40;99.90;;;;;;5040574;28;20318;-82
2021/05/30 06:51:53;;;;;;;28.37;19.33;;;10.50;99.90;;;;;;5045829;28;20240;-83
2021/05/30 06:54:21;;;;;;;25.53;19.93;;;10.50;99.90;;;;;;5046052;28;20279;-83
2021/05/30 06:56:50;;;;;;;24.67;18.47;;;10.50;99.90;;;;;;5038521;28;20241;-83
2021/05/30 06:59:19;;;;;;;24.33;18.43;;;10.40;99.90;;;;;;5050523;28;20241;-83
2021/05/30 07:01:48;;;;;;;29.13;19.03;;;10.30;99.90;;;;;;5058904;28;20330;-82
2021/05/30 07:04:16;;;;;;;24.33;18.27;;;10.40;99.90;;;;;;5049991;28;20236;-83
2021/05/30 07:06:45;;;;;;;24.87;18.17;;;10.40;99.90;;;;;;5050119;28;20236;-83
2021/05/30 07:09:13;;;;;;;25.47;17.27;;;10.50;99.90;;;;;;5064654;28;20239;-82
2021/05/30 07:11:43;;;;;;;22.60;17.40;;;10.40;99.90;;;;;;5050522;28;20289;-83
2021/05/30 07:14:15;;;;;;;24.63;17.37;;;10.40;99.90;;;;;;5045449;28;20261;-84
2021/05/30 07:16:43;;;;;;;20.73;16.67;;;10.40;99.90;;;;;;5042775;28;20237;-82
2021/05/30 07:19:11;;;;;;;24.10;17.30;;;10.50;99.90;;;;;;5045589;28;20252;-83
2021/05/30 07:21:38;;;;;;;22.93;16.47;;;10.60;99.90;;;;;;5058120;28;20298;-84
2021/05/30 07:24:08;;;;;;;21.13;16.30;;;10.60;99.90;;;;;;5050337;28;20243;-84
2021/05/30 07:26:37;;;;;;;21.87;16.63;;;10.60;99.90;;;;;;5057713;28;20314;-84
2021/05/30 07:29:06;;;;;;;23.63;16.37;;;10.60;99.90;;;;;;5082295;28;20293;-82
2021/05/30 07:31:34;;;;;;;22.10;16.03;;;10.80;99.90;;;;;;5044257;28;20706;-83
2021/05/30 07:34:02;;;;;;;20.70;15.93;;;11.00;99.90;;;;;;5042601;28;20288;-83
2021/05/30 07:36:32;;;;;;;20.77;14.87;;;11.10;99.90;;;;;;5046560;28;20324;-85
2021/05/30 07:39:00;;;;;;;23.00;14.80;;;11.20;99.90;;;;;;5048354;28;20313;-84
2021/05/30 07:41:29;;;;;;;20.23;14.27;;;11.20;99.90;;;;;;5055283;28;20243;-83
2021/05/30 07:43:58;;;;;;;19.53;14.90;;;11.20;99.90;;;;;;5068283;28;20301;-83
2021/05/30 07:46:26;;;;;;;17.73;13.53;;;11.20;99.90;;;;;;5063373;28;20257;-83
2021/05/30 07:48:53;;;;;;;19.23;13.50;;;11.40;99.90;;;;;;5028832;28;20237;-83
2021/05/30 07:51:22;;;;;;;17.47;13.37;;;11.30;99.90;;;;;;5042905;28;20239;-84
2021/05/30 07:53:50;;;;;;;18.77;13.13;;;11.40;99.90;;;;;;5045876;28;20239;-83
2021/05/30 07:56:19;;;;;;;17.27;12.33;;;11.60;99.90;;;;;;5054686;28;20223;-83
2021/05/30 07:58:48;;;;;;;16.30;12.60;;;11.80;99.90;;;;;;5084329;28;20241;-85
2021/05/30 08:01:15;;;;;;;15.30;11.80;;;12.10;99.90;;;;;;5059573;28;20331;-84
2021/05/30 08:03:43;;;;;;;14.93;12.77;;;12.40;99.90;;;;;;5066666;28;21265;-84
2021/05/30 08:06:11;;;;;;;18.40;13.50;;;12.40;99.90;;;;;;5050225;28;20348;-84
2021/05/30 08:08:38;;;;;;;16.63;13.13;;;12.50;99.90;;;;;;5048433;28;20299;-86
2021/05/30 08:11:10;;;;;;;17.03;12.60;;;12.50;99.90;;;;;;5051866;28;20271;-84
2021/05/30 08:13:38;;;;;;;13.60;11.80;;;12.70;99.90;;;;;;5048935;28;20390;-83
2021/05/30 08:16:07;;;;;;;16.93;12.27;;;12.80;99.90;;;;;;5053707;28;20826;-87
2021/05/30 08:18:37;;;;;;;21.27;13.00;;;12.80;99.90;;;;;;5072849;28;20261;-86
2021/05/30 08:21:07;;;;;;;12.87;11.00;;;12.70;99.90;;;;;;5068207;28;20237;-83
2021/05/30 08:23:35;;;;;;;15.37;11.93;;;12.90;99.90;;;;;;5068225;28;20268;-87
2021/05/30 08:26:04;;;;;;;18.10;13.10;;;12.90;99.90;;;;;;5046832;28;20249;-86
2021/05/30 08:28:32;;;;;;;18.10;13.27;;;12.80;99.90;;;;;;5047592;28;20239;-87
2021/05/30 08:31:01;;;;;;;17.17;12.50;;;13.00;99.90;;;;;;5047815;28;20319;-84
2021/05/30 08:33:30;;;;;;;15.40;12.93;;;13.10;99.90;;;;;;5047105;28;20231;-87
2021/05/30 08:35:58;;;;;;;17.87;13.60;;;13.30;99.90;;;;;;5050335;28;20918;-87
2021/05/30 08:38:27;;;;;;;18.90;13.63;;;13.40;99.90;;;;;;5083318;28;20246;-87
2021/05/30 08:40:59;;;;;;;16.60;13.67;;;13.80;99.90;;;;;;5032031;28;20242;-85
2021/05/30 08:43:27;;;;;;;16.13;13.07;;;14.50;99.90;;;;;;5061985;28;20232;-87
2021/05/30 08:45:55;;;;;;;17.57;13.30;;;14.80;99.90;;;;;;5048867;28;20250;-88
2021/05/30 08:48:23;;;;;;;15.87;13.93;;;14.60;99.90;;;;;;5048730;28;20238;-88
2021/05/30 08:51:04;;;;;;;19.53;14.30;;;14.70;99.90;;;;;;5048939;28;20242;-87
2021/05/30 08:53:36;;;;;;;18.97;14.00;;;15.20;99.90;;;;;;5046357;28;20239;-87
2021/05/30 08:56:06;;;;;;;16.10;12.40;;;15.10;99.90;;;;;;5037426;28;20716;-86
2021/05/30 08:58:38;;;;;;;14.73;12.73;;;15.60;99.90;;;;;;5053540;28;20331;-88
2021/05/30 09:01:13;;;;;;;15.20;12.50;;;15.90;99.90;;;;;;5044992;28;20308;-87
2021/05/30 09:03:52;;;;;;;16.20;12.60;;;16.40;99.90;;;;;;5053871;28;20249;-88
2021/05/30 09:06:23;;;;;;;17.60;12.33;;;16.50;99.90;;;;;;5055110;28;20285;-88
2021/05/30 09:08:52;;;;;;;17.67;11.67;;;16.80;99.90;;;;;;5052966;28;20243;-89
2021/05/30 09:11:39;;;;;;;13.93;12.37;;;17.10;99.90;;;;;;5047747;28;20602;-88
2021/05/30 09:14:12;;;;;;;14.53;12.53;;;16.90;99.90;;;;;;5047892;28;20242;-87
2021/05/30 09:16:56;;;;;;;17.27;11.93;;;17.00;99.90;;;;;;5038061;28;20243;-85
2021/05/30 09:19:43;;;;;;;16.63;11.17;;;17.60;99.90;;;;;;5059742;28;20579;-83
2021/05/30 09:22:27;;;;;;;15.03;11.23;;;17.80;99.90;;;;;;5041895;28;20247;-87
2021/05/30 09:25:17;;;;;;;14.57;11.13;;;18.00;99.90;;;;;;5040718;28;20327;-83
2021/05/30 09:27:48;;;;;;;14.30;11.50;;;18.50;99.90;;;;;;5036946;28;21609;-88
2021/05/30 09:30:21;;;;;;;14.47;10.40;;;19.00;99.90;;;;;;5044055;28;20244;-88
2021/05/30 09:33:04;;;;;;;12.77;9.53;;;19.10;99.90;;;;;;5041222;28;20719;-86
2021/05/30 09:35:57;;;;;;;14.23;10.43;;;19.60;99.90;;;;;;5044457;28;20237;-85
2021/05/30 09:38:35;;;;;;;14.37;11.07;;;20.30;99.90;;;;;;5032206;28;20237;-87
2021/05/30 09:41:09;;;;;;;14.87;11.63;;;19.70;99.90;;;;;;5055127;28;20315;-87
2021/05/30 09:43:47;;;;;;;14.53;10.13;;;19.40;99.90;;;;;;5045308;28;20787;-84
2021/05/30 09:46:16;;;;;;;11.03;9.60;;;19.70;99.90;;;;;;5059634;28;20329;-84
2021/05/30 09:48:55;;;;;;;15.93;11.30;;;19.70;99.90;;;;;;5043393;28;20360;-83
2021/05/30 09:51:37;;;;;;;12.20;8.63;;;20.20;99.90;;;;;;5046662;28;20262;-87
2021/05/30 09:54:07;;;;;;;13.17;9.77;;;20.60;99.90;;;;;;5045872;28;20246;-85
2021/05/30 09:56:42;;;;;;;12.90;9.43;;;20.70;99.90;;;;;;5041916;28;20245;-83
2021/05/30 09:59:12;;;;;;;16.07;10.43;;;21.00;99.90;;;;;;5046008;28;21148;-84
2021/05/30 10:01:54;;;;;;;12.60;10.23;;;21.00;99.90;;;;;;5059984;28;20240;-83
2021/05/30 10:04:24;;;;;;;11.60;9.60;;;20.40;99.90;;;;;;5044394;28;20240;-86
2021/05/30 10:06:55;;;;;;;12.40;9.93;;;20.60;99.90;;;;;;5040224;28;20324;-83
2021/05/30 10:09:25;;;;;;;13.63;9.93;;;20.70;99.90;;;;;;5044683;28;20389;-81
2021/05/30 10:11:53;;;;;;;12.63;9.53;;;20.30;99.90;;;;;;5044653;28;20262;-86
2021/05/30 10:14:21;;;;;;;12.30;9.27;;;20.60;99.90;;;;;;5044473;28;20841;-82
2021/05/30 10:16:50;;;;;;;11.53;9.70;;;21.10;99.90;;;;;;5040684;28;20764;-86
2021/05/30 10:19:24;;;;;;;10.50;8.17;;;21.50;99.90;;;;;;5045009;28;20252;-88
2021/05/30 10:21:54;;;;;;;12.23;9.17;;;22.20;99.90;;;;;;5043386;28;20248;-87
2021/05/30 10:24:24;;;;;;;12.23;8.83;;;22.30;99.90;;;;;;5064608;28;20269;-86
2021/05/30 10:27:11;;;;;;;14.23;8.53;;;21.90;99.90;;;;;;5046390;28;20706;-85
2021/05/30 10:29:39;;;;;;;11.03;8.70;;;21.30;99.90;;;;;;5049308;28;20241;-88
2021/05/30 10:32:18;;;;;;;11.63;8.90;;;21.20;99.90;;;;;;5049881;28;20769;-87
2021/05/30 10:35:09;;;;;;;10.73;8.67;;;21.20;99.90;;;;;;5047031;28;20322;-86
2021/05/30 10:37:44;;;;;;;13.47;8.17;;;21.70;99.90;;;;;;5043112;28;21726;-84
2021/05/30 10:40:38;;;;;;;12.57;8.70;;;22.00;99.90;;;;;;5047737;28;20246;-82
2021/05/30 10:43:20;;;;;;;11.80;8.27;;;21.50;99.90;;;;;;5048315;28;20236;-83
2021/05/30 10:46:05;;;;;;;13.03;8.07;;;21.80;99.90;;;;;;5046503;28;20765;-83
2021/05/30 10:48:35;;;;;;;10.97;7.80;;;21.20;99.90;;;;;;5057324;28;20237;-82
2021/05/30 10:51:24;;;;;;;11.33;8.00;;;22.00;99.90;;;;;;5043204;28;20227;-82
2021/05/30 10:53:53;;;;;;;7.93;6.90;;;22.20;99.90;;;;;;5050062;28;20853;-82
2021/05/30 10:56:26;;;;;;;10.67;7.87;;;21.90;99.90;;;;;;5050090;28;20231;-82
2021/05/30 10:59:19;;;;;;;10.00;7.00;;;22.40;99.90;;;;;;5063708;28;20236;-82
2021/05/30 11:01:48;;;;;;;10.47;7.70;;;23.10;99.90;;;;;;5046336;28;20243;-82
2021/05/30 11:04:38;;;;;;;12.03;7.87;;;23.50;99.90;;;;;;5056590;28;20717;-85
2021/05/30 11:07:36;;;;;;;10.93;6.97;;;23.60;99.90;;;;;;5041161;28;20240;-83
2021/05/30 11:10:09;;;;;;;9.17;6.93;;;24.00;99.90;;;;;;5024970;28;20249;-84
2021/05/30 11:12:51;;;;;;;12.20;7.27;;;23.80;99.90;;;;;;5048127;28;20251;-85
2021/05/30 11:15:23;;;;;;;10.87;7.20;;;24.10;99.90;;;;;;5054335;28;20247;-85
2021/05/30 11:17:55;;;;;;;8.57;6.17;;;23.90;99.90;;;;;;5066673;28;20239;-85
2021/05/30 11:20:26;;;;;;;12.40;6.93;;;23.60;99.90;;;;;;5052841;28;20696;-84
2021/05/30 11:22:56;;;;;;;8.70;6.23;;;22.90;99.90;;;;;;5065070;28;20230;-85
2021/05/30 11:25:30;;;;;;;9.13;6.40;;;22.80;99.90;;;;;;5060318;28;20255;-84
2021/05/30 11:28:00;;;;;;;9.80;6.30;;;23.10;99.90;;;;;;5061881;28;20713;-84
2021/05/30 11:30:58;;;;;;;10.23;6.33;;;23.30;99.90;;;;;;5056391;28;20284;-85
2021/05/30 11:33:49;;;;;;;10.67;6.87;;;23.10;99.90;;;;;;5053929;28;20247;-85
2021/05/30 11:36:25;;;;;;;11.17;7.23;;;23.20;99.90;;;;;;5049694;28;20292;-84
2021/05/30 11:38:56;;;;;;;12.57;7.40;;;23.40;99.90;;;;;;5049402;28;20236;-85
2021/05/30 11:41:29;;;;;;;12.63;6.80;;;23.10;99.90;;;;;;5071965;28;20253;-84
2021/05/30 11:44:04;;;;;;;9.97;6.50;;;23.20;99.90;;;;;;5053720;28;20241;-86
2021/05/30 11:46:36;;;;;;;8.73;5.97;;;23.60;99.90;;;;;;5053081;28;20639;-86
2021/05/30 11:49:08;;;;;;;9.10;6.37;;;23.90;99.90;;;;;;5064193;28;20314;-85
2021/05/30 11:52:02;;;;;;;11.50;6.30;;;24.10;99.90;;;;;;5039599;28;20297;-83
2021/05/30 11:54:33;;;;;;;11.17;6.57;;;23.80;99.90;;;;;;5046153;28;20293;-84
2021/05/30 11:57:04;;;;;;;10.23;6.23;;;23.70;99.90;;;;;;5047204;28;20251;-84
2021/05/30 11:59:35;;;;;;;9.03;6.47;;;23.50;99.90;;;;;;5047510;28;20255;-83
2021/05/30 12:02:04;;;;;;;9.60;6.37;;;22.70;99.90;;;;;;5042017;28;20236;-83
2021/05/30 12:04:35;;;;;;;10.57;6.60;;;22.80;99.90;;;;;;5045075;28;20239;-82
2021/05/30 12:07:05;;;;;;;9.03;5.97;;;22.40;99.90;;;;;;5045431;28;20297;-82
2021/05/30 12:09:59;;;;;;;7.93;5.27;;;22.00;99.90;;;;;;5046547;28;20289;-82
2021/05/30 12:12:33;;;;;;;10.23;5.43;;;21.90;99.90;;;;;;5033013;28;20231;-84
2021/05/30 12:15:09;;;;;;;7.90;5.40;;;21.90;99.90;;;;;;5044741;28;20229;-84
2021/05/30 12:17:37;;;;;;;10.50;5.70;;;21.90;99.90;;;;;;5048828;28;20274;-83
2021/05/30 12:20:07;;;;;;;8.63;5.30;;;21.60;99.90;;;;;;5049721;28;20258;-84
2021/05/30 12:22:35;;;;;;;8.10;5.93;;;21.60;99.90;;;;;;5049182;28;20236;-84
2021/05/30 12:25:09;;;;;;;9.63;5.63;;;21.70;99.90;;;;;;5048972;28;20239;-84
2021/05/30 12:27:37;;;;;;;9.30;5.10;;;21.90;99.90;;;;;;5050212;28;20296;-82
2021/05/30 12:30:10;;;;;;;8.47;4.70;;;21.70;99.90;;;;;;5050915;28;20700;-84
2021/05/30 12:32:37;;;;;;;7.20;4.67;;;21.80;99.90;;;;;;5050262;28;20235;-84
2021/05/30 12:35:07;;;;;;;8.90;5.27;;;21.70;99.90;;;;;;5064987;28;20258;-84
2021/05/30 12:37:40;;;;;;;9.37;5.07;;;21.40;99.90;;;;;;5058807;28;20246;-84
2021/05/30 12:40:11;;;;;;;9.37;5.80;;;21.60;99.90;;;;;;5057113;28;20269;-83
2021/05/30 12:42:41;;;;;;;8.00;5.70;;;21.60;99.90;;;;;;5045096;28;20247;-83
2021/05/30 12:45:14;;;;;;;9.97;6.40;;;21.20;99.90;;;;;;5048430;28;20238;-84
2021/05/30 12:47:43;;;;;;;9.20;6.27;;;21.00;99.90;;;;;;5051546;28;20244;-84
2021/05/30 12:50:13;;;;;;;10.53;6.67;;;20.80;99.90;;;;;;5040114;28;20235;-83
2021/05/30 12:52:46;;;;;;;12.13;7.30;;;20.60;99.90;;;;;;5070432;28;20764;-84